Time;durP1;ratioP1;P1;durP2;ratioP2;P2;SDS_P1;SDS_P2;PMS_P1;PMS_P2;Temp;Humidity;BMP_temperature;BMP_pressure;BME280_temperature;BME280_humidity;BME280_pressure;Samples;Min_cycle;Max_cycle;Signal;HPM_P1;HPM_P2
2023/01/24 00:01:55;;;;;;;;;54.33;44.67;;;;;4.15;72.16;103415.88;5118630;27;45296;-64
2023/01/24 00:04:21;;;;;;;;;50.67;40.33;;;;;4.26;72.30;103434.63;5119001;27;45469;-64
2023/01/24 00:06:46;;;;;;;;;54.00;39.67;;;;;4.21;71.98;103416.97;5125111;27;46468;-64
2023/01/24 00:09:11;;;;;;;;;61.00;42.33;;;;;4.25;72.24;103425.00;5118548;27;45347;-64
2023/01/24 00:11:37;;;;;;;;;69.00;39.67;;;;;4.21;72.43;103415.25;5117533;27;45782;-64
2023/01/24 00:14:02;;;;;;;;;55.67;43.00;;;;;4.25;71.92;103417.19;5115401;27;45488;-64
2023/01/24 00:16:27;;;;;;;;;56.00;40.33;;;;;4.28;72.18;103417.31;5117773;27;45508;-64
2023/01/24 00:18:53;;;;;;;;;55.33;42.00;;;;;4.32;72.12;103428.81;5116972;27;45402;-64
2023/01/24 00:21:21;;;;;;;;;53.33;38.33;;;;;4.29;72.02;103434.75;5117811;27;45437;-64
2023/01/24 00:23:48;;;;;;;;;63.67;43.00;;;;;4.27;72.23;103430.28;5116639;27;45532;-64
2023/01/24 00:26:14;;;;;;;;;44.67;37.00;;;;;4.29;72.50;103418.25;5116242;27;46289;-64
2023/01/24 00:28:40;;;;;;;;;59.33;40.33;;;;;4.25;72.09;103409.34;5115690;27;45634;-64
2023/01/24 00:31:06;;;;;;;;;59.00;42.00;;;;;4.34;72.21;103425.47;5115608;27;45573;-64
2023/01/24 00:33:32;;;;;;;;;57.67;44.00;;;;;4.35;72.17;103424.63;5117155;27;45444;-64
2023/01/24 00:35:57;;;;;;;;;44.33;34.67;;;;;4.34;72.10;103421.94;5117395;27;46341;-64
2023/01/24 00:38:23;;;;;;;;;50.67;41.00;;;;;4.14;72.19;103408.88;5118255;27;45478;-64
2023/01/24 00:40:49;;;;;;;;;50.67;40.33;;;;;4.22;72.66;103419.66;5128112;27;45871;-64
2023/01/24 00:43:14;;;;;;;;;43.67;35.00;;;;;4.22;72.60;103418.78;5139217;27;45419;-64
2023/01/24 00:45:40;;;;;;;;;54.00;40.33;;;;;4.26;72.81;103418.97;5138769;27;46061;-64
2023/01/24 00:48:09;;;;;;;;;42.00;37.00;;;;;4.06;72.60;103375.44;5123341;27;45327;-64
2023/01/24 00:50:34;;;;;;;;;57.33;38.67;;;;;4.30;72.26;103417.44;5117999;27;45276;-64
2023/01/24 00:53:00;;;;;;;;;55.00;36.67;;;;;4.29;72.52;103418.25;5118502;27;45492;-64
2023/01/24 00:55:26;;;;;;;;;64.33;39.00;;;;;4.24;72.97;103419.72;5117813;27;46311;-64
2023/01/24 00:57:52;;;;;;;;;51.67;37.00;;;;;4.14;72.62;103395.84;5119011;27;45524;-64
2023/01/24 01:00:17;;;;;;;;;50.33;37.67;;;;;4.26;72.50;103412.88;5117258;27;45506;-64
2023/01/24 01:02:43;;;;;;;;;52.67;40.33;;;;;4.29;72.71;103410.41;5117345;27;45413;-64
2023/01/24 01:05:08;;;;;;;;;47.00;37.00;;;;;4.23;72.63;103394.50;5116187;27;46025;-64
2023/01/24 01:07:34;;;;;;;;;51.67;36.33;;;;;4.24;72.77;103380.59;5116625;27;45323;-64
2023/01/24 01:09:59;;;;;;;;;54.00;37.33;;;;;4.28;72.53;103401.66;5117259;27;45762;-64
2023/01/24 01:12:25;;;;;;;;;50.00;40.67;;;;;4.28;72.86;103398.19;5116520;27;45416;-64
2023/01/24 01:14:50;;;;;;;;;41.67;34.33;;;;;4.33;73.15;103388.88;5116717;27;46185;-64
2023/01/24 01:17:16;;;;;;;;;50.00;37.00;;;;;4.39;72.56;103396.09;5117041;27;45404;-64
2023/01/24 01:19:42;;;;;;;;;51.33;38.33;;;;;4.30;72.52;103378.31;5116085;27;45628;-65
2023/01/24 01:22:07;;;;;;;;;45.00;37.00;;;;;4.40;72.83;103400.47;5116472;27;45231;-64
2023/01/24 01:24:33;;;;;;;;;60.33;39.67;;;;;4.29;72.50;103389.56;5116687;27;46789;-65
2023/01/24 01:26:59;;;;;;;;;52.67;40.00;;;;;4.25;72.81;103385.88;5116144;27;45455;-65
2023/01/24 01:29:24;;;;;;;;;39.33;27.67;;;;;4.01;72.80;103346.56;5117710;27;45456;-64
2023/01/24 01:31:49;;;;;;;;;49.33;39.33;;;;;4.16;72.69;103375.94;5116309;27;45488;-64
2023/01/24 01:34:15;;;;;;;;;49.67;37.00;;;;;4.17;72.67;103376.84;5116002;27;46053;-64
2023/01/24 01:36:40;;;;;;;;;48.67;36.00;;;;;4.27;72.62;103397.31;5118704;27;45377;-64
2023/01/24 01:39:06;;;;;;;;;49.00;36.33;;;;;4.27;72.40;103381.66;5117521;27;45416;-64
2023/01/24 01:41:32;;;;;;;;;52.33;39.00;;;;;4.26;72.71;103387.69;5117679;27;45839;-64
2023/01/24 01:47:01;;;;;;;;;50.33;38.00;;;;;4.19;72.20;103388.22;5117454;27;45389;-62
2023/01/24 01:49:27;;;;;;;;;57.00;39.00;;;;;4.09;72.20;103373.84;5117498;27;45330;-64
2023/01/24 01:52:00;;;;;;;;;54.33;37.33;;;;;4.14;72.04;103385.41;5136571;27;45574;-64
2023/01/24 01:54:30;;;;;;;;;44.33;38.00;;;;;4.07;72.04;103378.13;5136473;27;46151;-64
2023/01/24 01:57:01;;;;;;;;;51.33;34.33;;;;;3.83;72.05;103346.56;5116987;27;45404;-64
2023/01/24 01:59:37;;;;;;;;;35.67;35.00;;;;;4.07;72.15;103382.44;5117555;27;45425;-64
2023/01/24 02:02:05;;;;;;;;;43.33;33.67;;;;;3.97;72.36;103383.72;5121276;27;45487;-64
2023/01/24 02:04:37;;;;;;;;;43.33;36.00;;;;;3.86;72.21;103369.28;5120503;27;45565;-64
2023/01/24 02:07:28;;;;;;;;;56.67;43.33;;;;;3.85;72.46;103363.19;5118570;27;45429;-64
2023/01/24 02:09:55;;;;;;;;;43.67;31.33;;;;;3.87;72.74;103371.97;5118304;27;45477;-64
2023/01/24 02:12:24;;;;;;;;;52.33;41.67;;;;;3.77;73.13;103367.13;5120094;27;45752;-64
2023/01/24 02:17:39;;;;;;;;;60.00;40.67;;;;;3.80;73.28;103380.31;5125139;27;45415;-64
2023/01/24 02:20:28;;;;;;;;;62.00;41.67;;;;;3.74;73.01;103370.47;5118924;27;45422;-64
2023/01/24 02:23:08;;;;;;;;;61.33;44.00;;;;;3.72;73.56;103372.13;5119744;27;45356;-64
2023/01/24 02:26:18;;;;;;;;;54.67;40.00;;;;;3.72;73.38;103377.34;5110519;27;45758;-64
2023/01/24 02:28:48;;;;;;;;;53.67;40.00;;;;;3.62;73.61;103360.38;5033975;28;45542;-64
2023/01/24 02:31:14;;;;;;;;;55.33;40.00;;;;;3.72;73.43;103364.31;5039547;28;45393;-64
2023/01/24 02:33:39;;;;;;;;;48.67;37.67;;;;;3.72;73.96;103361.72;5041832;28;45520;-64
2023/01/24 02:36:13;;;;;;;;;56.00;40.00;;;;;3.74;73.66;103360.06;5035284;28;46183;-64
2023/01/24 02:38:42;;;;;;;;;54.00;36.33;;;;;3.80;73.87;103367.28;5036752;28;45329;-64
2023/01/24 02:41:09;;;;;;;;;58.33;42.67;;;;;3.81;73.66;103377.78;5036209;28;45433;-64
2023/01/24 02:43:39;;;;;;;;;57.33;43.33;;;;;3.57;73.89;103335.81;5036627;28;45290;-64
2023/01/24 02:46:04;;;;;;;;;56.33;44.33;;;;;3.82;73.80;103374.34;5036208;28;45413;-65
2023/01/24 02:48:30;;;;;;;;;57.00;41.00;;;;;3.73;73.82;103359.97;5048111;28;45499;-64
2023/01/24 02:53:39;;;;;;;;;61.33;45.67;;;;;3.82;73.94;103370.88;5056956;28;45345;-64
2023/01/24 02:58:51;;;;;;;;;65.00;44.00;;;;;3.78;73.72;103361.13;5056389;28;45981;-65
2023/01/24 03:01:18;;;;;;;;;61.67;41.33;;;;;3.76;74.08;103379.28;5056323;28;45458;-64
2023/01/24 03:03:45;;;;;;;;;64.00;47.33;;;;;3.76;74.55;103389.69;5127620;27;45516;-64
2023/01/24 03:06:12;;;;;;;;;58.33;40.33;;;;;3.70;74.32;103376.34;5140192;27;45512;-64
2023/01/24 03:08:38;;;;;;;;;65.67;43.33;;;;;3.81;73.96;103382.97;5123162;27;45347;-64
2023/01/24 03:11:05;;;;;;;;;46.67;39.67;;;;;3.77;73.94;103370.63;5118750;27;45283;-64
2023/01/24 03:35:24;;;;;;;;;48.33;39.33;;;;;3.81;73.88;103356.94;5118982;27;45615;-65
2023/01/24 03:40:34;;;;;;;;;57.33;38.33;;;;;3.84;73.82;103372.69;5124596;27;46869;-64
2023/01/24 03:43:00;;;;;;;;;54.67;38.33;;;;;3.80;74.18;103368.16;5117455;27;46173;-64
2023/01/24 03:45:28;;;;;;;;;62.33;44.00;;;;;3.80;74.29;103375.97;5117463;27;45607;-64
2023/01/24 03:47:59;;;;;;;;;50.67;41.67;;;;;3.79;74.47;103366.41;5117052;27;46498;-64
2023/01/24 03:53:12;;;;;;;;;47.33;33.00;;;;;3.82;74.03;103357.84;5117875;27;45442;-64
2023/01/24 03:55:37;;;;;;;;;54.33;40.67;;;;;3.91;73.93;103373.03;5123027;27;45656;-65
2023/01/24 03:58:04;;;;;;;;;55.00;41.67;;;;;3.90;73.71;103386.84;5122825;27;45363;-65
2023/01/24 04:00:30;;;;;;;;;56.67;42.33;;;;;3.81;73.91;103379.50;5117411;27;45223;-65
2023/01/24 04:02:55;;;;;;;;;57.00;43.00;;;;;3.82;73.71;103368.25;5118150;27;45252;-65
2023/01/24 04:05:21;;;;;;;;;61.67;43.33;;;;;3.62;74.01;103338.63;5117314;27;45464;-65
2023/01/24 04:07:47;;;;;;;;;54.33;41.67;;;;;3.81;74.07;103376.88;5117590;27;45359;-65
2023/01/24 04:10:16;;;;;;;;;61.33;43.67;;;;;3.83;73.91;103377.84;5117865;27;45369;-65
2023/01/24 04:12:42;;;;;;;;;58.00;43.33;;;;;3.77;73.87;103368.00;5127061;27;45445;-65
2023/01/24 04:15:08;;;;;;;;;43.33;31.33;;;;;3.83;74.09;103381.38;5121519;27;45858;-65
2023/01/24 04:17:34;;;;;;;;;65.67;44.33;;;;;3.77;73.62;103377.56;5117301;27;45879;-65
2023/01/24 04:19:59;;;;;;;;;58.33;44.00;;;;;3.75;74.07;103380.09;5118532;27;45331;-65
2023/01/24 04:22:25;;;;;;;;;52.67;40.00;;;;;3.59;74.07;103352.41;5117955;27;45376;-64
2023/01/24 04:24:50;;;;;;;;;56.33;41.67;;;;;3.74;74.56;103380.91;5118298;27;45500;-64
2023/01/24 04:27:15;;;;;;;;;56.33;40.00;;;;;3.73;74.17;103373.00;5118340;27;46486;-65
2023/01/24 04:29:41;;;;;;;;;59.33;41.33;;;;;3.72;74.10;103366.00;5130428;27;45511;-64
2023/01/24 04:32:07;;;;;;;;;47.67;40.67;;;;;3.75;73.96;103372.28;5139346;27;45263;-64
2023/01/24 04:34:33;;;;;;;;;47.67;31.33;;;;;3.71;74.01;103361.63;5139417;27;45622;-64
2023/01/24 04:36:58;;;;;;;;;56.67;41.00;;;;;3.73;74.23;103366.13;5139091;27;47155;-64
2023/01/24 04:39:24;;;;;;;;;57.00;40.67;;;;;3.73;73.83;103373.94;5139121;27;45312;-64
2023/01/24 04:41:49;;;;;;;;;60.00;42.67;;;;;3.67;75.02;103381.41;5139412;27;45325;-64
2023/01/24 04:44:14;;;;;;;;;63.00;41.33;;;;;3.64;75.20;103368.25;5137142;27;45392;-64
2023/01/24 04:46:40;;;;;;;;;59.00;44.67;;;;;3.69;74.88;103374.59;5118463;27;45443;-64
2023/01/24 04:49:05;;;;;;;;;60.00;42.33;;;;;3.69;74.90;103369.38;5118167;27;45396;-64
2023/01/24 04:51:30;;;;;;;;;52.33;36.33;;;;;3.75;74.70;103372.28;5117743;27;46007;-64
2023/01/24 04:53:56;;;;;;;;;61.33;43.67;;;;;3.51;74.80;103332.00;5117613;27;45522;-64
2023/01/24 04:56:21;;;;;;;;;58.00;43.67;;;;;3.70;74.72;103362.44;5117221;27;47405;-64
2023/01/24 04:58:47;;;;;;;;;55.33;41.33;;;;;3.64;75.02;103361.31;5117375;27;45402;-64
2023/01/24 05:01:12;;;;;;;;;58.67;44.00;;;;;3.77;74.96;103377.56;5120594;27;45765;-63
2023/01/24 05:03:37;;;;;;;;;56.33;41.67;;;;;3.78;75.05;103377.63;5115728;27;45827;-64
2023/01/24 05:06:03;;;;;;;;;46.00;37.00;;;;;3.81;74.70;103379.50;5117339;27;45605;-63
2023/01/24 05:08:28;;;;;;;;;53.67;39.33;;;;;3.79;75.20;103381.13;5117066;27;45314;-61
2023/01/24 05:10:53;;;;;;;;;52.67;37.67;;;;;3.88;74.71;103384.19;5117181;27;45355;-62
2023/01/24 05:13:19;;;;;;;;;61.00;43.33;;;;;3.90;74.64;103373.81;5117351;27;45464;-63
2023/01/24 05:15:49;;;;;;;;;51.33;40.33;;;;;3.93;74.43;103387.00;5122482;27;46729;-63
2023/01/24 05:18:14;;;;;;;;;47.67;38.67;;;;;3.92;74.43;103380.00;5116414;27;45603;-62
2023/01/24 05:20:40;;;;;;;;;56.67;40.00;;;;;3.87;74.40;103364.16;5116911;27;45747;-63
2023/01/24 05:23:05;;;;;;;;;59.00;43.67;;;;;3.89;73.79;103370.31;5115895;27;45691;-64
2023/01/24 05:25:31;;;;;;;;;53.67;42.00;;;;;3.79;74.24;103358.56;5115908;27;46469;-64
2023/01/24 05:27:56;;;;;;;;;55.00;39.33;;;;;3.85;73.58;103376.22;5117577;27;45780;-63
2023/01/24 05:30:21;;;;;;;;;49.67;38.33;;;;;3.75;74.00;103360.97;5116238;27;45436;-63
2023/01/24 05:32:47;;;;;;;;;55.67;39.33;;;;;3.82;73.81;103379.56;5124877;27;45411;-63
2023/01/24 05:35:12;;;;;;;;;53.33;41.00;;;;;3.77;74.10;103383.66;5116915;27;45409;-64
2023/01/24 05:37:39;;;;;;;;;56.00;41.67;;;;;3.75;74.36;103379.22;5120473;27;45301;-64
2023/01/24 05:40:05;;;;;;;;;43.00;37.33;;;;;3.70;74.48;103386.78;5120612;27;45389;-64
2023/01/24 05:42:31;;;;;;;;;51.33;37.33;;;;;3.71;74.90;103388.56;5120408;27;45736;-64
2023/01/24 05:44:56;;;;;;;;;58.67;41.00;;;;;3.72;74.93;103376.44;5120567;27;46182;-65
2023/01/24 05:47:22;;;;;;;;;44.33;36.00;;;;;3.67;74.64;103378.81;5121180;27;45436;-65
2023/01/24 05:49:47;;;;;;;;;53.67;34.67;;;;;3.69;75.13;103385.00;5126185;27;45361;-65
2023/01/24 05:52:18;;;;;;;;;50.33;39.33;;;;;3.77;74.54;103394.06;5142018;27;45536;-65
2023/01/24 05:54:43;;;;;;;;;60.33;44.33;;;;;3.78;74.09;103395.00;5120780;27;46486;-65
2023/01/24 05:57:09;;;;;;;;;59.00;45.00;;;;;3.74;74.47;103400.88;5120597;27;45413;-65
2023/01/24 05:59:34;;;;;;;;;56.00;43.00;;;;;3.69;74.72;103403.25;5120847;27;45340;-65
2023/01/24 06:01:59;;;;;;;;;56.00;38.00;;;;;3.66;75.11;103392.69;5121164;27;45317;-65
2023/01/24 06:04:25;;;;;;;;;55.00;42.00;;;;;3.74;74.79;103399.13;5120771;27;46444;-65
2023/01/24 06:06:50;;;;;;;;;56.33;44.67;;;;;3.62;75.17;103383.81;5127795;27;45543;-65
2023/01/24 06:09:15;;;;;;;;;57.33;40.00;;;;;3.72;74.66;103400.78;5141381;27;45396;-65
2023/01/24 06:11:41;;;;;;;;;49.67;38.67;;;;;3.79;74.47;103397.66;5120068;27;45429;-65
2023/01/24 06:14:06;;;;;;;;;53.00;40.00;;;;;3.74;74.28;103391.31;5119974;27;46730;-65
2023/01/24 06:16:31;;;;;;;;;54.00;40.67;;;;;3.81;74.53;103402.94;5119531;27;45430;-65
2023/01/24 06:18:57;;;;;;;;;53.67;42.67;;;;;3.78;73.99;103400.19;5119011;27;45417;-65
2023/01/24 06:21:38;;;;;;;;;56.00;43.00;;;;;3.87;74.34;103415.38;5119908;27;45271;-65
2023/01/24 06:24:04;;;;;;;;;55.67;39.33;;;;;3.85;74.42;103412.72;5136915;27;46505;-65
2023/01/24 06:26:30;;;;;;;;;57.00;43.33;;;;;3.86;74.38;103405.78;5141003;27;46368;-65
2023/01/24 06:28:56;;;;;;;;;52.67;40.00;;;;;3.72;74.45;103392.97;5140834;27;45273;-65
2023/01/24 06:31:34;;;;;;;;;45.33;39.00;;;;;3.82;74.51;103408.22;5127092;27;45483;-65
2023/01/24 06:34:27;;;;;;;;;59.67;40.67;;;;;3.92;74.72;103421.69;5119363;27;46525;-65
2023/01/24 06:37:17;;;;;;;;;47.00;35.00;;;;;3.93;74.48;103426.09;5113606;27;45411;-65
2023/01/24 06:39:50;;;;;;;;;61.00;43.00;;;;;3.96;74.71;103432.34;5122432;27;45444;-65
2023/01/24 06:42:20;;;;;;;;;54.00;41.00;;;;;3.94;74.23;103415.75;5119065;27;45359;-65
2023/01/24 06:44:46;;;;;;;;;59.00;41.00;;;;;4.02;73.73;103429.13;5119012;27;46041;-65
2023/01/24 06:47:12;;;;;;;;;56.33;39.33;;;;;3.99;73.81;103419.47;5117100;27;45953;-65
2023/01/24 06:49:38;;;;;;;;;49.33;37.33;;;;;4.02;73.68;103439.56;5119632;27;45456;-65
2023/01/24 06:52:04;;;;;;;;;46.00;40.00;;;;;3.91;73.40;103417.31;5119094;27;45619;-64
2023/01/24 06:54:29;;;;;;;;;43.33;38.33;;;;;3.98;73.62;103433.31;5116712;27;46004;-64
2023/01/24 06:56:54;;;;;;;;;45.67;38.00;;;;;4.04;73.75;103443.16;5119146;27;45468;-65
2023/01/24 06:59:22;;;;;;;;;54.00;40.33;;;;;3.98;73.62;103432.44;5117961;27;45374;-65
2023/01/24 07:01:48;;;;;;;;;54.67;39.67;;;;;3.98;73.54;103445.47;5118462;27;45328;-65
2023/01/24 07:04:13;;;;;;;;;56.00;42.00;;;;;3.99;73.84;103440.34;5117337;27;46621;-65
2023/01/24 07:06:39;;;;;;;;;50.00;40.00;;;;;4.06;73.61;103441.50;5118301;27;45240;-65
2023/01/24 07:09:05;;;;;;;;;42.00;34.33;;;;;4.00;73.57;103434.28;5119005;27;45368;-65
2023/01/24 07:11:30;;;;;;;;;51.00;42.00;;;;;4.00;73.47;103444.69;5117939;27;45375;-64
2023/01/24 07:13:55;;;;;;;;;55.33;40.67;;;;;3.89;73.23;103426.75;5119427;27;45981;-65
2023/01/24 07:16:21;;;;;;;;;54.67;39.00;;;;;3.87;73.79;103429.31;5116495;27;45411;-64
2023/01/24 07:18:46;;;;;;;;;52.67;42.00;;;;;3.91;73.70;103446.00;5118419;27;45372;-64
2023/01/24 07:21:12;;;;;;;;;54.67;41.67;;;;;4.01;73.44;103453.44;5119857;27;45286;-64
2023/01/24 07:23:43;;;;;;;;;55.67;38.33;;;;;3.95;73.24;103453.13;5115694;27;47405;-64
2023/01/24 07:26:11;;;;;;;;;47.33;39.00;;;;;3.90;73.26;103447.69;5118342;27;46195;-64
2023/01/24 07:28:36;;;;;;;;;55.67;40.33;;;;;3.98;73.90;103466.31;5119247;27;45301;-64
2023/01/24 07:31:02;;;;;;;;;53.33;38.00;;;;;3.98;73.95;103467.22;5128396;27;45375;-64
2023/01/24 07:33:28;;;;;;;;;63.67;41.00;;;;;4.02;73.74;103473.44;5117267;27;47233;-63
2023/01/24 07:35:53;;;;;;;;;54.33;41.00;;;;;3.99;72.99;103473.31;5118344;27;45402;-64
2023/01/24 07:38:19;;;;;;;;;49.67;37.00;;;;;3.97;73.31;103482.78;5118906;27;45451;-63
2023/01/24 07:40:44;;;;;;;;;51.33;43.33;;;;;3.91;73.52;103490.31;5118549;27;45551;-63
2023/01/24 07:43:10;;;;;;;;;57.00;43.00;;;;;3.84;73.58;103482.16;5119151;27;46215;-64
2023/01/24 07:45:37;;;;;;;;;52.00;38.67;;;;;3.83;73.45;103487.31;5119196;27;45456;-64
2023/01/24 07:48:04;;;;;;;;;41.33;34.33;;;;;3.75;73.84;103471.28;5137244;27;45176;-64
2023/01/24 07:50:30;;;;;;;;;55.33;40.00;;;;;3.81;74.11;103484.63;5139801;27;45413;-64
2023/01/24 07:52:56;;;;;;;;;54.67;41.00;;;;;3.88;73.67;103491.03;5125456;27;46434;-64
2023/01/24 07:55:22;;;;;;;;;62.33;43.67;;;;;3.76;73.64;103477.38;5118913;27;45541;-64
2023/01/24 07:57:47;;;;;;;;;61.67;43.00;;;;;3.82;73.68;103489.03;5118961;27;45268;-64
2023/01/24 08:00:13;;;;;;;;;59.33;44.33;;;;;3.86;73.80;103491.78;5118358;27;45491;-64
2023/01/24 08:02:39;;;;;;;;;57.67;43.67;;;;;3.75;73.59;103478.22;5131649;27;46611;-64
2023/01/24 08:05:06;;;;;;;;;58.67;44.00;;;;;3.71;73.85;103484.97;5139602;27;45475;-64
2023/01/24 08:07:31;;;;;;;;;53.33;42.67;;;;;3.62;74.07;103474.13;5138999;27;45586;-64
2023/01/24 08:09:56;;;;;;;;;54.67;41.67;;;;;3.71;74.40;103487.59;5124783;27;45299;-64
2023/01/24 08:12:22;;;;;;;;;49.67;40.67;;;;;3.79;73.98;103494.09;5118799;27;45459;-64
2023/01/24 08:14:47;;;;;;;;;56.33;41.00;;;;;3.77;73.98;103489.59;5117086;27;45419;-64
2023/01/24 08:17:13;;;;;;;;;60.33;45.00;;;;;3.70;74.17;103477.09;5117725;27;45529;-64
2023/01/24 08:19:39;;;;;;;;;58.67;43.33;;;;;3.72;74.73;103480.66;5131695;27;45654;-64
2023/01/24 08:22:05;;;;;;;;;61.33;48.00;;;;;3.86;73.97;103497.88;5117754;27;46782;-64
2023/01/24 08:24:30;;;;;;;;;59.67;46.00;;;;;3.90;73.53;103491.13;5118450;27;45394;-64
2023/01/24 08:26:56;;;;;;;;;56.33;45.33;;;;;3.88;73.56;103497.94;5119464;27;45634;-64
2023/01/24 08:29:21;;;;;;;;;67.67;47.33;;;;;3.93;73.43;103505.19;5119602;27;45853;-64
2023/01/24 08:31:48;;;;;;;;;63.67;44.00;;;;;3.89;72.75;103500.63;5121166;27;45446;-64
2023/01/24 08:34:14;;;;;;;;;65.33;46.67;;;;;3.87;73.41;103504.88;5116621;27;45611;-64
2023/01/24 08:36:39;;;;;;;;;63.67;46.33;;;;;3.82;73.46;103509.88;5115313;27;45395;-65
2023/01/24 08:39:05;;;;;;;;;49.00;37.00;;;;;3.90;73.39;103517.19;5117703;27;45986;-64
2023/01/24 08:41:30;;;;;;;;;57.67;41.33;;;;;3.90;73.47;103525.00;5117483;27;46620;-64
2023/01/24 08:43:56;;;;;;;;;59.00;44.67;;;;;3.89;73.55;103525.81;5116912;27;45412;-64
2023/01/24 08:46:21;;;;;;;;;58.33;44.67;;;;;3.84;73.37;103529.06;5116242;27;45358;-64
2023/01/24 08:48:46;;;;;;;;;56.67;42.33;;;;;3.75;73.61;103523.41;5106378;27;45444;-64
2023/01/24 08:51:12;;;;;;;;;66.33;46.00;;;;;3.80;73.43;103534.06;5116846;27;45265;-64
2023/01/24 08:53:37;;;;;;;;;58.00;41.00;;;;;3.74;73.92;103528.53;5116897;27;45675;-64
2023/01/24 08:56:03;;;;;;;;;57.00;38.00;;;;;3.72;73.53;103527.56;5116698;27;45509;-64
2023/01/24 08:58:29;;;;;;;;;59.67;46.67;;;;;3.73;73.69;103534.56;5112281;27;47036;-63
2023/01/24 09:00:54;;;;;;;;;60.33;45.33;;;;;3.63;73.91;103521.09;5104249;27;47423;-63
2023/01/24 09:03:19;;;;;;;;;66.33;48.67;;;;;3.77;74.23;103536.50;5116304;27;45780;-62
2023/01/24 09:05:45;;;;;;;;;66.33;48.67;;;;;3.81;74.08;103547.16;5115892;27;45452;-63
2023/01/24 09:08:11;;;;;;;;;61.67;47.67;;;;;3.80;74.06;103536.66;5106161;27;45499;-63
2023/01/24 09:10:37;;;;;;;;;64.00;45.33;;;;;3.88;73.91;103540.56;5114173;27;46683;-63
2023/01/24 09:13:04;;;;;;;;;70.33;48.67;;;;;3.85;73.81;103540.41;5118262;27;45671;-64
2023/01/24 09:15:30;;;;;;;;;62.67;46.00;;;;;3.87;73.76;103541.38;5136331;27;45434;-63
2023/01/24 09:17:55;;;;;;;;;65.33;44.33;;;;;3.93;73.59;103544.28;5122782;27;45824;-63
2023/01/24 09:20:21;;;;;;;;;64.33;50.67;;;;;3.92;72.86;103552.03;5119945;27;47378;-63
2023/01/24 09:22:47;;;;;;;;;62.50;47.50;;;;;3.85;73.26;103550.84;5120941;27;45334;-64
2023/01/24 09:25:12;;;;;;;;;62.00;48.33;;;;;3.84;73.46;103557.75;5119297;27;45319;-64
2023/01/24 09:27:41;;;;;;;;;60.00;44.00;;;;;3.84;73.65;103557.75;5119033;27;46023;-64
2023/01/24 09:30:08;;;;;;;;;61.33;43.33;;;;;3.92;73.43;103559.84;5117107;27;47660;-64
2023/01/24 09:32:35;;;;;;;;;70.00;48.33;;;;;3.95;73.40;103562.59;5117574;27;45496;-64
2023/01/24 09:35:00;;;;;;;;;63.33;45.67;;;;;3.98;73.52;103566.28;5120391;27;45506;-64
2023/01/24 09:37:26;;;;;;;;;68.33;44.33;;;;;3.97;72.66;103551.44;5121933;27;45411;-63
2023/01/24 09:39:55;;;;;;;;;54.67;40.33;;;;;3.95;73.04;103558.31;5120322;27;46684;-63
2023/01/24 09:42:29;;;;;;;;;56.67;43.33;;;;;3.96;72.81;103561.78;5120263;27;45716;-64
2023/01/24 09:45:00;;;;;;;;;66.67;45.33;;;;;3.92;73.01;103555.53;5118244;27;45446;-64
2023/01/24 09:48:06;;;;;;;;;69.33;48.67;;;;;3.93;72.83;103562.53;5115725;27;45623;-64
2023/01/24 09:50:59;;;;;;;;;67.00;45.67;;;;;3.92;72.84;103562.44;5112499;27;46172;-63
2023/01/24 09:53:29;;;;;;;;;65.00;45.33;;;;;3.88;72.95;103560.50;5117266;27;45458;-63
2023/01/24 09:55:55;;;;;;;;;58.67;41.00;;;;;3.89;72.83;103551.88;5115967;27;45463;-63
2023/01/24 09:58:33;;;;;;;;;66.67;49.33;;;;;4.00;72.99;103563.75;5119853;27;45467;-63
2023/01/24 10:01:11;;;;;;;;;52.00;40.33;;;;;3.94;72.50;103548.69;5119880;27;46427;-63
2023/01/24 10:03:37;;;;;;;;;58.67;45.33;;;;;3.88;72.15;103540.56;5117882;27;45398;-63
2023/01/24 10:06:29;;;;;;;;;58.33;44.00;;;;;4.04;72.97;103568.28;5119326;27;45707;-63
2023/01/24 10:09:19;;;;;;;;;55.33;44.33;;;;;4.05;72.43;103567.44;5039798;28;45530;-64
2023/01/24 10:11:58;;;;;;;;;62.67;44.00;;;;;4.04;72.12;103573.50;5056031;28;46556;-65
2023/01/24 10:14:38;;;;;;;;;61.33;43.33;;;;;3.95;72.15;103575.63;5035335;28;45508;-65
2023/01/24 10:17:07;;;;;;;;;43.33;36.00;;;;;3.95;72.55;103571.34;5036022;28;45909;-65
2023/01/24 10:19:47;;;;;;;;;58.00;44.00;;;;;4.01;72.49;103568.16;5035970;28;45402;-64
2023/01/24 10:22:43;;;;;;;;;71.33;48.67;;;;;3.98;72.51;103545.41;5035938;28;45373;-62
2023/01/24 10:25:26;;;;;;;;;53.33;40.00;;;;;4.12;72.13;103558.25;5035948;28;45397;-62
2023/01/24 10:27:55;;;;;;;;;55.00;42.67;;;;;4.20;72.20;103564.75;5051775;28;45516;-62
2023/01/24 10:30:28;;;;;;;;;56.00;41.00;;;;;4.23;71.71;103564.88;5051297;28;45593;-62
2023/01/24 10:33:01;;;;;;;;;51.00;43.33;;;;;4.13;71.84;103545.28;5036357;28;45489;-62
2023/01/24 10:35:36;;;;;;;;;47.00;41.00;;;;;4.25;71.72;103552.78;5036169;28;45521;-62
2023/01/24 10:38:07;;;;;;;;;57.33;40.00;;;;;4.32;71.05;103556.63;5034849;28;45496;-62
2023/01/24 10:40:32;;;;;;;;;55.00;44.00;;;;;4.42;71.46;103566.66;5034259;28;45536;-63
2023/01/24 10:43:06;;;;;;;;;49.00;39.33;;;;;4.47;71.07;103567.81;5036014;28;46377;-62
2023/01/24 10:46:01;;;;;;;;;56.00;40.00;;;;;4.43;71.24;103568.47;5062953;27;45410;-60
2023/01/24 10:48:41;;;;;;;;;54.67;41.33;;;;;4.52;71.10;103562.78;5117989;27;45236;-61
2023/01/24 10:51:16;;;;;;;;;55.00;42.67;;;;;4.48;70.75;103546.09;5118579;27;45410;-61
2023/01/24 10:53:42;;;;;;;;;37.33;23.67;;;;;4.54;70.87;103548.09;5118845;27;47340;-62
2023/01/24 10:56:08;;;;;;;;;58.00;43.00;;;;;4.54;71.02;103545.50;5118998;27;45451;-60
2023/01/24 10:59:02;;;;;;;;;55.00;39.33;;;;;4.64;70.64;103552.94;5117333;27;46014;-62
2023/01/24 11:01:37;;;;;;;;;55.33;41.00;;;;;4.58;70.46;103539.59;5035027;28;45406;-61
2023/01/24 11:04:23;;;;;;;;;46.67;36.00;;;;;4.57;70.51;103532.59;5034663;28;45511;-62
2023/01/24 11:06:50;;;;;;;;;32.33;29.67;;;;;4.66;70.87;103540.88;5027405;28;45528;-60
2023/01/24 11:09:23;;;;;;;;;50.67;38.67;;;;;4.75;70.37;103539.47;5035601;28;45507;-59
2023/01/24 11:11:54;;;;;;;;;56.33;41.33;;;;;4.78;70.59;103540.53;5034821;28;45435;-61
2023/01/24 11:14:23;;;;;;;;;48.67;36.33;;;;;4.84;69.60;103547.75;5034000;28;45531;-61
2023/01/24 11:16:51;;;;;;;;;44.00;35.67;;;;;4.84;70.32;103545.16;5032586;28;45524;-61
2023/01/24 11:19:25;;;;;;;;;51.00;38.00;;;;;4.84;70.29;103542.53;5034876;28;45510;-61
2023/01/24 11:21:56;;;;;;;;;52.00;39.00;;;;;4.76;69.90;103529.13;5035195;28;45472;-62
2023/01/24 11:24:22;;;;;;;;;55.00;38.33;;;;;4.81;70.32;103527.63;5034346;28;46187;-62
2023/01/24 11:27:12;;;;;;;;;49.00;37.33;;;;;4.87;69.90;103529.63;5033800;28;45402;-61
2023/01/24 11:29:38;;;;;;;;;59.67;42.33;;;;;4.83;70.11;103523.34;5034185;28;45466;-62
2023/01/24 11:32:17;;;;;;;;;44.33;37.00;;;;;4.91;69.93;103528.94;5034050;28;45513;-61
2023/01/24 11:34:45;;;;;;;;;57.67;39.33;;;;;4.94;69.42;103530.78;5032932;28;46746;-61
2023/01/24 11:37:25;;;;;;;;;56.33;44.33;;;;;5.01;70.35;103530.25;5034009;28;45459;-61
2023/01/24 11:40:20;;;;;;;;;52.67;40.67;;;;;5.01;69.46;103525.94;5117606;27;45508;-62
2023/01/24 11:43:02;;;;;;;;;46.33;39.33;;;;;5.02;69.72;103525.09;5119467;27;45383;-62
2023/01/24 11:45:39;;;;;;;;;53.00;41.33;;;;;4.96;69.52;103522.19;5113212;27;45698;-62
2023/01/24 11:48:35;;;;;;;;;51.33;39.00;;;;;4.94;69.38;103509.91;5119285;27;45686;-63
2023/01/24 11:51:27;;;;;;;;;50.33;40.67;;;;;4.97;69.86;103515.28;5120012;27;45482;-63
2023/01/24 11:54:20;;;;;;;;;56.33;40.33;;;;;4.96;69.52;103529.16;5118347;27;45465;-62
2023/01/24 11:57:23;;;;;;;;;57.33;43.00;;;;;4.91;69.51;103518.50;5118556;27;46206;-62
2023/01/24 12:00:26;;;;;;;;;57.00;40.33;;;;;4.91;69.63;103515.91;5117151;27;45470;-62
2023/01/24 12:03:09;;;;;;;;;50.00;39.67;;;;;4.94;69.40;103508.19;5116657;27;45497;-62
2023/01/24 12:05:40;;;;;;;;;53.67;38.67;;;;;4.95;69.38;103503.84;5114825;27;45476;-64